Arch, New Mexico
Current Conditions -  °F | °C
As of 11:58 PM on Tuesday 25 Nov 2014 (Local Time) from KCVS Reporting Station
Clear Clear  
Wind Chill:   Ceiling: Unl
Heat Index:   Visibility: 10mi
Dew Point: -11°   Wind: 16mph
Humidity: 28%   Direction: 290°WNW
Pressure: 30.07"   Gusts: NA
Location:  34.1669°N, 103.266°W
Report Text: KCVS 260658Z AUTO 29014KT 10SM CLR 07/M10 A3007 RMK AO2 PK WND 29026/00 SLP168 T00721105 401271056 $
Loading
Personal Weather Stations






























Interactive Weather Map New forecast layout! Learn more

10-Day Weather Forecast

Advertisements
Track Severe Weather on mobile